Time;durP1;ratioP1;P1;durP2;ratioP2;P2;SDS_P1;SDS_P2;PMS_P1;PMS_P2;Temp;Humidity;BMP_temperature;BMP_pressure;BME280_temperature;BME280_humidity;BME280_pressure;Samples;Min_cycle;Max_cycle;Signal;HPM_P1;HPM_P2
2023/02/27 00:00:16;;;;;;;5.75;2.70;;;;;;;1.92;74.48;103204.28;6098922;19;20114;-71
2023/02/27 00:02:21;;;;;;;11.38;2.70;;;;;;;1.91;74.35;103206.81;6080568;19;20057;-71
2023/02/27 00:04:28;;;;;;;7.43;3.45;;;;;;;1.94;73.98;103201.72;6098026;19;20093;-71
2023/02/27 00:06:40;;;;;;;5.45;2.67;;;;;;;1.94;74.10;103210.38;6101606;19;20031;-71
2023/02/27 00:08:45;;;;;;;7.88;2.35;;;;;;;1.96;74.06;103215.63;6102609;19;20015;-71
2023/02/27 00:10:51;;;;;;;10.18;2.65;;;;;;;2.04;73.54;103208.97;6102625;19;20011;-71
2023/02/27 00:12:56;;;;;;;7.78;2.65;;;;;;;2.08;72.86;103209.94;6101446;19;20670;-71
2023/02/27 00:15:01;;;;;;;7.13;2.70;;;;;;;2.06;72.73;103214.22;6103192;19;20435;-71
2023/02/27 00:17:06;;;;;;;9.02;2.65;;;;;;;2.07;73.01;103218.56;6103031;19;20501;-71
2023/02/27 00:19:12;;;;;;;6.10;2.53;;;;;;;2.06;72.48;103222.88;6103519;19;20047;-71
2023/02/27 00:21:21;;;;;;;7.80;2.42;;;;;;;2.01;72.84;103221.84;6102740;19;20642;-71
2023/02/27 00:23:28;;;;;;;7.78;2.28;;;;;;;2.08;72.56;103218.63;6099806;19;20018;-70
2023/02/27 00:25:37;;;;;;;5.72;2.10;;;;;;;2.05;72.73;103210.72;6100801;19;20807;-71
2023/02/27 00:27:43;;;;;;;8.35;2.42;;;;;;;2.16;71.85;103211.97;6099763;19;20095;-71
2023/02/27 00:29:48;;;;;;;5.28;2.25;;;;;;;2.13;71.95;103217.06;6102857;19;20019;-72
2023/02/27 00:31:53;;;;;;;8.50;2.65;;;;;;;2.14;71.65;103215.34;6099112;19;20015;-71
2023/02/27 00:34:00;;;;;;;11.98;3.22;;;;;;;2.16;71.28;103205.91;6101154;19;20106;-70
2023/02/27 00:36:09;;;;;;;5.40;2.65;;;;;;;2.15;71.44;103210.19;6100543;19;20031;-71
2023/02/27 00:38:17;;;;;;;8.38;3.13;;;;;;;2.16;71.18;103204.19;6100728;19;20078;-71
2023/02/27 00:40:26;;;;;;;8.13;2.72;;;;;;;2.18;71.67;103201.63;6103238;19;20097;-76
2023/02/27 00:42:35;;;;;;;4.95;2.38;;;;;;;2.20;71.14;103205.16;6102614;19;20027;-75
2023/02/27 00:44:41;;;;;;;6.05;2.30;;;;;;;2.15;71.12;103215.38;6107886;19;20027;-75
2023/02/27 00:46:47;;;;;;;6.57;2.40;;;;;;;2.15;71.04;103205.00;6111377;19;20653;-75
2023/02/27 00:48:52;;;;;;;5.72;1.80;;;;;;;2.19;71.14;103206.88;6111098;19;20581;-75
2023/02/27 00:50:57;;;;;;;6.95;2.35;;;;;;;2.13;71.00;103193.72;6107014;19;20333;-74
2023/02/27 00:53:02;;;;;;;6.72;2.55;;;;;;;2.14;70.98;103197.19;6112396;19;20014;-75
2023/02/27 00:55:08;;;;;;;10.90;2.30;;;;;;;2.12;71.22;103191.06;6111303;19;20014;-75
2023/02/27 00:57:19;;;;;;;5.30;2.13;;;;;;;2.15;70.81;103193.75;6110802;19;20010;-75
2023/02/27 00:59:23;;;;;;;5.00;2.17;;;;;;;2.16;71.06;103216.28;6110983;19;20027;-75
2023/02/27 01:01:28;;;;;;;6.75;2.50;;;;;;;2.09;71.32;103206.53;6110684;19;20018;-75
2023/02/27 01:03:38;;;;;;;5.35;2.15;;;;;;;2.06;71.39;103206.44;6112032;19;20391;-75
2023/02/27 01:05:43;;;;;;;10.90;2.80;;;;;;;2.04;71.38;103202.91;6113908;19;20017;-75
2023/02/27 01:07:48;;;;;;;3.67;1.92;;;;;;;2.02;71.43;103205.44;6111658;19;20228;-75
2023/02/27 01:09:53;;;;;;;6.05;2.70;;;;;;;2.02;71.29;103213.22;6110541;19;20061;-75
2023/02/27 01:11:58;;;;;;;5.80;2.40;;;;;;;2.05;71.28;103202.94;6110737;19;20007;-75
2023/02/27 01:14:05;;;;;;;5.40;2.22;;;;;;;2.08;70.58;103207.34;6107713;19;20020;-75
2023/02/27 01:16:12;;;;;;;9.50;2.38;;;;;;;2.08;70.33;103202.16;6105387;19;20015;-75
2023/02/27 01:18:20;;;;;;;9.57;2.95;;;;;;;2.03;70.59;103203.72;6084161;19;20526;-76
2023/02/27 01:20:25;;;;;;;4.53;2.20;;;;;;;2.01;70.33;103200.22;6103544;19;20009;-75
2023/02/27 01:22:31;;;;;;;4.47;1.95;;;;;;;2.00;70.62;103201.91;6108438;19;20634;-75
2023/02/27 01:24:40;;;;;;;6.50;2.40;;;;;;;1.97;70.57;103197.53;6103448;19;20453;-76
2023/02/27 01:26:46;;;;;;;4.57;2.88;;;;;;;2.00;70.45;103196.72;6106040;19;20014;-75
2023/02/27 01:28:51;;;;;;;6.43;2.13;;;;;;;1.97;71.00;103194.03;6106546;19;20427;-75
2023/02/27 01:30:58;;;;;;;7.13;2.35;;;;;;;1.86;70.84;103190.22;6104213;19;20641;-75
2023/02/27 01:33:17;;;;;;;6.70;2.03;;;;;;;1.88;70.91;103193.75;6105824;19;20360;-75
2023/02/27 01:35:22;;;;;;;7.22;2.67;;;;;;;1.92;70.20;103190.41;6106506;19;20015;-75
2023/02/27 01:37:26;;;;;;;5.95;2.10;;;;;;;1.81;70.77;103189.19;6105104;19;20336;-75
2023/02/27 01:39:31;;;;;;;5.32;2.50;;;;;;;1.75;70.68;103185.53;6102930;19;20014;-75
2023/02/27 01:41:36;;;;;;;6.45;2.45;;;;;;;1.78;70.71;103194.25;6107877;19;20078;-75
2023/02/27 01:43:58;;;;;;;5.93;2.42;;;;;;;1.74;71.04;103188.97;6108841;19;20030;-75
2023/02/27 01:46:06;;;;;;;5.95;2.30;;;;;;;1.77;70.89;103189.91;6107917;19;20524;-75
2023/02/27 01:48:18;;;;;;;8.93;2.15;;;;;;;1.69;70.91;103182.75;6107554;19;20110;-76
2023/02/27 01:50:23;;;;;;;9.88;2.75;;;;;;;1.68;70.94;103190.47;6109185;19;20363;-76
2023/02/27 01:52:30;;;;;;;5.55;2.28;;;;;;;1.60;71.42;103189.31;6106708;19;20695;-75
2023/02/27 01:54:38;;;;;;;8.75;2.50;;;;;;;1.62;71.72;103183.38;6083924;19;20022;-76
2023/02/27 01:56:44;;;;;;;6.05;2.35;;;;;;;1.62;71.71;103179.91;6108205;19;20002;-75
2023/02/27 01:58:51;;;;;;;5.50;2.40;;;;;;;1.59;71.68;103183.28;6107405;19;20011;-74
2023/02/27 02:00:59;;;;;;;11.15;3.20;;;;;;;1.60;71.59;103187.63;6104134;19;20018;-73
2023/02/27 02:03:15;;;;;;;4.93;2.10;;;;;;;1.55;71.83;103186.56;6107032;19;20022;-74
2023/02/27 02:05:23;;;;;;;7.10;2.33;;;;;;;1.52;71.84;103181.28;6107561;19;20002;-74
2023/02/27 02:07:32;;;;;;;7.93;2.67;;;;;;;1.50;72.20;103188.13;6108377;19;20127;-74
2023/02/27 02:09:43;;;;;;;4.63;2.30;;;;;;;1.47;71.90;103186.31;6106673;19;20025;-74
2023/02/27 02:11:51;;;;;;;6.45;2.10;;;;;;;1.41;72.26;103187.81;6084541;19;20022;-75
2023/02/27 02:13:58;;;;;;;3.25;2.10;;;;;;;1.34;72.21;103191.00;6105632;19;20013;-74
2023/02/27 02:16:23;;;;;;;4.85;2.45;;;;;;;1.35;72.70;103192.78;6107457;19;20023;-76
2023/02/27 02:18:40;;;;;;;5.60;2.33;;;;;;;1.25;73.04;103186.41;6106041;19;20005;-74
2023/02/27 02:21:15;;;;;;;4.50;2.70;;;;;;;1.23;73.10;103191.50;6110240;19;20465;-75
2023/02/27 02:23:52;;;;;;;8.55;2.13;;;;;;;1.13;73.44;103196.31;6103349;19;20018;-75
2023/02/27 02:26:28;;;;;;;4.93;2.50;;;;;;;1.07;73.79;103196.97;6061341;19;20651;-74
2023/02/27 02:29:24;;;;;;;4.20;2.00;;;;;;;0.95;73.52;103192.22;6105365;19;20015;-74
2023/02/27 02:32:01;;;;;;;3.75;2.30;;;;;;;0.83;74.33;103190.06;6102841;19;20022;-74
2023/02/27 02:34:41;;;;;;;5.53;2.58;;;;;;;0.80;75.02;103191.66;6105466;19;20158;-73
2023/02/27 02:37:43;;;;;;;4.45;2.58;;;;;;;0.74;75.50;103184.53;6106223;19;20014;-74
2023/02/27 02:40:17;;;;;;;5.93;2.40;;;;;;;0.67;75.12;103190.31;6096110;19;20019;-74
2023/02/27 02:42:27;;;;;;;9.32;2.42;;;;;;;0.64;75.94;103192.78;6107447;19;20026;-74
2023/02/27 02:44:41;;;;;;;9.40;3.08;;;;;;;0.63;75.64;103186.72;6106293;19;20093;-74
2023/02/27 02:46:58;;;;;;;7.05;2.67;;;;;;;0.63;75.66;103193.59;6106210;19;20014;-74
2023/02/27 02:49:15;;;;;;;4.70;2.50;;;;;;;0.62;75.83;103197.00;6100888;19;20018;-74
2023/02/27 02:51:34;;;;;;;8.38;2.78;;;;;;;0.59;76.20;103194.31;6107162;19;20090;-74
2023/02/27 02:53:47;;;;;;;6.75;3.58;;;;;;;0.51;76.14;103191.41;6104928;19;20019;-74
2023/02/27 02:56:01;;;;;;;7.25;2.17;;;;;;;0.48;75.93;103193.03;6107595;19;20091;-71
2023/02/27 02:58:14;;;;;;;5.55;2.55;;;;;;;0.39;76.75;103191.81;6105366;19;20086;-70
2023/02/27 03:00:22;;;;;;;13.77;3.60;;;;;;;0.36;76.55;103196.88;6106278;19;20014;-70
2023/02/27 03:02:32;;;;;;;5.25;2.20;;;;;;;0.39;76.63;103196.97;6108101;19;20021;-70
2023/02/27 03:04:42;;;;;;;5.07;2.42;;;;;;;0.37;76.52;103198.66;6106950;19;20015;-70
2023/02/27 03:06:53;;;;;;;6.10;2.33;;;;;;;0.33;76.20;103198.47;6106866;19;20006;-70
2023/02/27 03:09:01;;;;;;;5.72;2.30;;;;;;;0.28;76.68;103195.69;6105704;19;20050;-70
2023/02/27 03:11:10;;;;;;;4.05;2.17;;;;;;;0.26;76.69;103192.16;6109773;19;20083;-69
2023/02/27 03:13:22;;;;;;;6.07;2.47;;;;;;;0.25;76.47;103197.28;6089405;19;20020;-70
2023/02/27 03:15:37;;;;;;;4.53;2.20;;;;;;;0.25;76.59;103195.56;6107524;19;20010;-71
2023/02/27 03:17:47;;;;;;;5.25;2.95;;;;;;;0.21;76.35;103194.56;6106927;19;20014;-70
2023/02/27 03:19:58;;;;;;;7.97;2.20;;;;;;;0.22;76.52;103200.63;6108147;19;20002;-70
2023/02/27 03:22:08;;;;;;;5.32;2.35;;;;;;;0.17;76.55;103199.53;6108858;19;20011;-70
2023/02/27 03:24:20;;;;;;;3.58;2.10;;;;;;;0.04;76.52;103199.88;6107000;19;20605;-71
2023/02/27 03:26:36;;;;;;;7.45;3.00;;;;;;;-0.03;76.45;103204.81;6108577;19;20039;-70
2023/02/27 03:28:55;;;;;;;5.95;2.35;;;;;;;-0.10;76.77;103210.53;6107439;19;20011;-70
2023/02/27 03:31:07;;;;;;;6.45;2.50;;;;;;;-0.19;77.11;103204.09;6101805;19;20010;-70
2023/02/27 03:33:22;;;;;;;9.18;3.03;;;;;;;-0.26;77.67;103202.97;6106983;19;20018;-70
2023/02/27 03:35:32;;;;;;;5.43;2.45;;;;;;;-0.29;77.96;103205.38;6087413;19;20038;-70
2023/02/27 03:37:47;;;;;;;4.28;2.17;;;;;;;-0.31;78.25;103207.06;6106934;19;20070;-70
2023/02/27 03:39:56;;;;;;;4.75;2.25;;;;;;;-0.33;78.38;103204.38;6105494;19;20038;-71
2023/02/27 03:42:16;;;;;;;11.00;3.20;;;;;;;-0.32;78.17;103195.81;6107397;19;20025;-71
2023/02/27 03:44:31;;;;;;;6.63;3.50;;;;;;;-0.34;78.62;103197.47;6106817;19;20495;-70
2023/02/27 03:46:39;;;;;;;6.35;3.47;;;;;;;-0.35;78.83;103199.97;6103671;19;20027;-71
2023/02/27 03:48:44;;;;;;;10.05;3.33;;;;;;;-0.42;78.58;103192.78;6108343;19;20023;-70
2023/02/27 03:50:52;;;;;;;5.68;2.80;;;;;;;-0.43;78.90;103197.06;6101488;19;20491;-72
2023/02/27 03:52:57;;;;;;;9.85;3.38;;;;;;;-0.47;79.05;103192.59;6097643;19;20013;-70
2023/02/27 03:55:07;;;;;;;8.70;3.72;;;;;;;-0.44;79.10;103190.13;6105987;19;20017;-71
2023/02/27 03:57:17;;;;;;;11.70;3.85;;;;;;;-0.51;79.37;103193.28;6108770;19;20024;-69
2023/02/27 03:59:23;;;;;;;8.90;4.53;;;;;;;-0.58;78.83;103201.56;6109273;19;20022;-72
2023/02/27 04:01:29;;;;;;;7.25;3.13;;;;;;;-0.60;78.80;103204.09;6109243;19;20015;-70
2023/02/27 04:03:41;;;;;;;13.85;4.50;;;;;;;-0.65;78.94;103207.28;6109076;19;20013;-69
2023/02/27 04:05:49;;;;;;;14.10;3.87;;;;;;;-0.71;79.76;103207.88;6110032;19;20397;-70
2023/02/27 04:08:11;;;;;;;19.05;5.10;;;;;;;-0.79;79.93;103205.00;6109503;19;20303;-69
2023/02/27 04:10:29;;;;;;;15.05;4.88;;;;;;;-0.86;79.87;103212.41;6107223;19;20015;-72
2023/02/27 04:12:54;;;;;;;16.10;4.65;;;;;;;-0.93;80.25;103209.50;6108310;19;20015;-71
2023/02/27 04:15:13;;;;;;;9.50;4.60;;;;;;;-1.00;79.82;103210.06;6104856;19;20035;-72
2023/02/27 04:17:25;;;;;;;12.23;3.85;;;;;;;-1.05;80.26;103213.22;6108361;19;20038;-71
2023/02/27 04:19:40;;;;;;;8.75;3.10;;;;;;;-1.07;80.96;103210.59;6113624;19;20018;-71
2023/02/27 04:21:56;;;;;;;9.88;3.22;;;;;;;-1.08;80.64;103210.53;6110580;19;20015;-69
2023/02/27 04:24:16;;;;;;;7.65;3.13;;;;;;;-1.07;81.35;103209.72;6109610;19;20018;-72
2023/02/27 04:26:26;;;;;;;6.43;3.33;;;;;;;-1.12;80.60;103212.97;6111427;19;20447;-71
2023/02/27 04:28:42;;;;;;;9.73;2.90;;;;;;;-1.14;80.99;103211.13;6109392;19;20042;-69
2023/02/27 04:31:02;;;;;;;8.88;3.13;;;;;;;-1.14;80.63;103214.59;6108393;19;20121;-71
2023/02/27 04:33:16;;;;;;;5.43;2.80;;;;;;;-1.18;80.56;103217.84;6107143;19;20038;-69
2023/02/27 04:35:27;;;;;;;9.30;3.58;;;;;;;-1.15;80.92;103222.28;6109794;19;20511;-72
2023/02/27 04:37:44;;;;;;;7.80;3.60;;;;;;;-1.18;80.92;103227.28;6108334;19;20574;-71
2023/02/27 04:39:56;;;;;;;11.07;3.25;;;;;;;-1.20;80.85;103226.34;6110311;19;20014;-71
2023/02/27 04:42:04;;;;;;;9.25;2.88;;;;;;;-1.18;81.39;103232.47;6107916;19;20050;-71
2023/02/27 04:44:14;;;;;;;8.80;3.25;;;;;;;-1.15;81.07;103224.84;6109010;19;20018;-71
2023/02/27 04:46:24;;;;;;;7.10;2.95;;;;;;;-1.16;81.07;103230.81;6107714;19;20099;-69
2023/02/27 04:48:33;;;;;;;11.32;3.35;;;;;;;-1.15;81.20;103232.59;6109761;19;20048;-72
2023/02/27 04:50:43;;;;;;;9.85;3.30;;;;;;;-1.17;80.83;103234.22;6108534;19;20010;-72
2023/02/27 04:52:56;;;;;;;9.82;3.50;;;;;;;-1.14;81.43;103235.22;6107655;19;20007;-72
2023/02/27 04:55:07;;;;;;;10.70;4.07;;;;;;;-1.13;81.71;103230.97;6106101;19;20011;-72
2023/02/27 04:57:17;;;;;;;;;;;;;;;-1.14;81.42;103244.66;6111283;19;20042;-69
2023/02/27 04:59:29;;;;;;;15.90;5.15;;;;;;;-1.14;82.14;103236.94;6110723;19;19956;-72
2023/02/27 05:01:38;;;;;;;13.07;3.92;;;;;;;-1.18;81.92;103243.66;6109046;19;20090;-72
2023/02/27 05:03:46;;;;;;;8.60;3.60;;;;;;;-1.24;81.54;103250.22;6108149;19;20010;-72
2023/02/27 05:05:54;;;;;;;11.05;3.90;;;;;;;-1.25;81.67;103258.78;6106607;19;20020;-71
2023/02/27 05:08:07;;;;;;;9.82;4.00;;;;;;;-1.28;82.59;103256.94;6109727;19;20043;-71
2023/02/27 05:10:19;;;;;;;8.02;2.70;;;;;;;-1.30;81.95;103255.09;6107405;19;20014;-70
2023/02/27 05:12:31;;;;;;;11.32;3.97;;;;;;;-1.36;82.36;103259.16;6108163;19;20015;-72
2023/02/27 05:14:43;;;;;;;10.85;3.60;;;;;;;-1.43;82.40;103264.81;6107517;19;20013;-71
2023/02/27 05:16:54;;;;;;;7.30;3.67;;;;;;;-1.48;82.09;103261.13;6108200;19;20011;-71
2023/02/27 05:18:59;;;;;;;13.02;3.90;;;;;;;-1.46;83.25;103262.09;6110210;19;20010;-71
2023/02/27 05:21:15;;;;;;;13.27;4.38;;;;;;;-1.43;83.22;103261.34;6104657;19;20011;-71
2023/02/27 05:23:27;;;;;;;14.60;4.82;;;;;;;-1.46;83.66;103259.50;6089878;19;20052;-71
2023/02/27 05:25:39;;;;;;;9.80;5.75;;;;;;;-1.46;83.73;103256.06;6110338;19;20066;-71
2023/02/27 05:27:50;;;;;;;15.35;5.65;;;;;;;-1.50;83.35;103257.63;6108973;19;20452;-71
2023/02/27 05:30:03;;;;;;;15.40;5.03;;;;;;;-1.52;83.49;103255.78;6107941;19;20017;-71
2023/02/27 05:32:18;;;;;;;15.10;6.10;;;;;;;-1.52;83.88;103256.66;6108470;19;20086;-72
2023/02/27 05:34:27;;;;;;;17.67;7.05;;;;;;;-1.55;83.58;103261.66;6106901;19;20006;-70
2023/02/27 05:36:36;;;;;;;21.80;5.72;;;;;;;-1.57;83.47;103255.53;6109490;19;20707;-70
2023/02/27 05:38:45;;;;;;;15.77;6.35;;;;;;;-1.54;83.68;103260.84;6109502;19;20015;-70
2023/02/27 05:40:55;;;;;;;17.75;6.22;;;;;;;-1.52;84.56;103250.63;6112102;19;20126;-70
2023/02/27 05:43:07;;;;;;;20.42;7.25;;;;;;;-1.49;84.37;103256.78;6108141;19;20010;-71
2023/02/27 05:45:21;;;;;;;23.20;9.15;;;;;;;-1.40;85.87;103256.34;6109363;19;20056;-70
2023/02/27 05:47:30;;;;;;;30.60;10.25;;;;;;;-1.45;85.57;103256.16;6087556;19;20162;-71
2023/02/27 05:49:39;;;;;;;29.13;10.95;;;;;;;-1.42;86.23;103257.97;6106994;19;20015;-71
2023/02/27 05:51:48;;;;;;;23.48;8.55;;;;;;;-1.39;86.05;103253.84;6108864;19;20010;-71
2023/02/27 05:54:01;;;;;;;25.60;9.00;;;;;;;-1.37;86.24;103256.47;6106395;19;20005;-72
2023/02/27 05:56:08;;;;;;;22.52;9.18;;;;;;;-1.33;86.47;103259.28;6106715;19;20486;-71
2023/02/27 05:58:19;;;;;;;24.95;8.68;;;;;;;-1.34;85.54;103262.69;6107935;19;20014;-71
2023/02/27 06:00:35;;;;;;;22.15;8.73;;;;;;;-1.36;85.59;103269.47;6104433;19;20006;-71
2023/02/27 06:02:44;;;;;;;26.85;9.10;;;;;;;-1.35;86.17;103268.63;6106657;19;20061;-71
2023/02/27 06:04:49;;;;;;;22.50;8.05;;;;;;;-1.35;85.84;103267.75;6106822;19;20038;-72
2023/02/27 06:06:56;;;;;;;24.85;9.05;;;;;;;-1.31;86.49;103267.13;6103849;19;20010;-71
2023/02/27 06:09:00;;;;;;;24.75;8.75;;;;;;;-1.28;86.72;103279.28;6105897;19;20014;-71
2023/02/27 06:11:06;;;;;;;19.30;7.93;;;;;;;-1.26;86.53;103275.03;6080021;19;20041;-71
2023/02/27 06:13:11;;;;;;;24.45;9.70;;;;;;;-1.19;86.64;103282.28;6105870;19;20011;-71
2023/02/27 06:15:17;;;;;;;27.73;11.05;;;;;;;-1.21;86.11;103276.16;6106231;19;20486;-71
2023/02/27 06:17:25;;;;;;;29.85;11.30;;;;;;;-1.23;86.36;103282.97;6104712;19;20015;-71
2023/02/27 06:19:29;;;;;;;27.52;10.18;;;;;;;-1.21;87.17;103270.97;6106324;19;20014;-71
2023/02/27 06:21:35;;;;;;;44.22;11.70;;;;;;;-1.23;86.27;103280.38;6106322;19;20138;-75
2023/02/27 06:23:43;;;;;;;40.42;13.65;;;;;;;-1.21;86.44;103284.78;6106947;19;20743;-75
2023/02/27 06:25:52;;;;;;;32.50;13.73;;;;;;;-1.24;86.57;103292.34;6105560;19;20027;-74
2023/02/27 06:27:58;;;;;;;34.58;12.88;;;;;;;-1.26;86.08;103295.69;6109948;19;20014;-75
2023/02/27 06:30:03;;;;;;;27.40;10.60;;;;;;;-1.20;87.10;103296.00;6107386;19;20014;-77
2023/02/27 06:32:08;;;;;;;27.15;11.48;;;;;;;-1.20;86.53;103301.16;6103779;19;20007;-76
2023/02/27 06:34:16;;;;;;;25.58;9.35;;;;;;;-1.16;86.49;103305.63;6109295;19;20002;-76
2023/02/27 06:36:21;;;;;;;20.55;8.70;;;;;;;-1.16;86.50;103305.63;6109924;19;20078;-76
2023/02/27 06:38:26;;;;;;;23.27;9.20;;;;;;;-1.16;86.43;103308.22;6084508;19;20010;-76
2023/02/27 06:40:38;;;;;;;27.08;9.55;;;;;;;-1.19;86.54;103308.06;6105677;19;20583;-77
2023/02/27 06:42:45;;;;;;;19.00;7.22;;;;;;;-1.18;86.15;103312.44;6084220;19;20028;-76
2023/02/27 06:44:50;;;;;;;26.08;7.50;;;;;;;-1.13;86.33;103316.13;6086087;19;20015;-76
2023/02/27 06:46:55;;;;;;;19.38;7.78;;;;;;;-1.13;86.46;103316.13;6086373;19;20014;-76
2023/02/27 06:49:03;;;;;;;14.00;5.88;;;;;;;-1.11;86.25;103322.22;6110271;19;20022;-76
2023/02/27 06:51:10;;;;;;;17.60;7.15;;;;;;;-1.13;86.12;103313.53;6105129;19;20074;-76
2023/02/27 06:53:20;;;;;;;17.67;6.82;;;;;;;-1.13;86.54;103321.28;6109642;19;20085;-76
2023/02/27 06:55:25;;;;;;;17.70;6.93;;;;;;;-1.12;86.23;103323.03;6109898;19;20054;-77
2023/02/27 06:57:30;;;;;;;17.63;7.40;;;;;;;-1.14;86.85;103322.06;6110320;19;20014;-74
2023/02/27 06:59:35;;;;;;;13.80;7.45;;;;;;;-1.19;86.60;103324.41;6108267;19;20451;-74
2023/02/27 07:01:42;;;;;;;15.65;7.05;;;;;;;-1.22;86.40;103324.28;6115194;19;20010;-74
2023/02/27 07:03:47;;;;;;;16.33;6.70;;;;;;;-1.21;86.51;103335.47;6112813;19;20050;-74
2023/02/27 07:05:52;;;;;;;16.98;6.97;;;;;;;-1.18;86.42;103340.81;6113476;19;20064;-74
2023/02/27 07:08:01;;;;;;;18.95;6.57;;;;;;;-1.17;86.70;103338.28;6119296;19;20035;-75
2023/02/27 07:10:06;;;;;;;18.10;6.88;;;;;;;-1.11;86.52;103341.19;6121736;19;20014;-74
2023/02/27 07:12:11;;;;;;;13.32;5.45;;;;;;;-1.03;86.50;103340.63;6115729;19;20018;-75
2023/02/27 07:14:16;;;;;;;18.05;6.85;;;;;;;-1.00;87.02;103341.69;6088196;19;20019;-74
2023/02/27 07:16:21;;;;;;;13.88;5.88;;;;;;;-0.99;86.26;103342.56;6106395;19;20581;-75
2023/02/27 07:18:26;;;;;;;17.63;6.82;;;;;;;-0.98;86.92;103342.63;6103880;19;20010;-75
2023/02/27 07:20:31;;;;;;;14.38;6.43;;;;;;;-0.97;86.21;103346.13;6107863;19;20111;-75
2023/02/27 07:22:39;;;;;;;19.50;7.18;;;;;;;-0.91;87.04;103348.97;6100957;19;20097;-75
2023/02/27 07:24:46;;;;;;;16.83;8.32;;;;;;;-0.91;86.24;103356.72;6106034;19;20015;-75
2023/02/27 07:26:52;;;;;;;18.73;7.47;;;;;;;-0.85;86.43;103354.41;6106353;19;20031;-76
2023/02/27 07:28:57;;;;;;;13.45;6.05;;;;;;;-0.79;86.57;103348.66;6100964;19;20029;-75
2023/02/27 07:31:03;;;;;;;14.00;6.00;;;;;;;-0.73;86.31;103354.13;6106929;19;20006;-75
2023/02/27 07:33:08;;;;;;;14.75;6.13;;;;;;;-0.60;86.66;103347.81;6105013;19;20018;-76
2023/02/27 07:35:16;;;;;;;17.60;5.72;;;;;;;-0.51;86.55;103351.69;6103397;19;20018;-76
2023/02/27 07:37:22;;;;;;;12.43;6.00;;;;;;;-0.37;86.12;103354.00;6104123;19;20018;-76
2023/02/27 07:39:27;;;;;;;13.90;6.15;;;;;;;-0.33;85.97;103353.34;6105307;19;20017;-76
2023/02/27 07:41:35;;;;;;;14.07;5.80;;;;;;;-0.22;86.01;103341.78;6106702;19;20006;-76
2023/02/27 07:43:40;;;;;;;14.38;5.78;;;;;;;-0.13;86.05;103349.97;6104620;19;20010;-75
2023/02/27 07:45:49;;;;;;;13.00;5.35;;;;;;;0.08;86.11;103346.50;6102682;19;20038;-76
2023/02/27 07:47:54;;;;;;;10.65;6.00;;;;;;;0.13;85.65;103356.25;6102649;19;20018;-74
2023/02/27 07:50:03;;;;;;;11.68;6.25;;;;;;;0.22;85.16;103354.06;6105119;19;20014;-74
2023/02/27 07:52:10;;;;;;;14.80;5.80;;;;;;;0.29;85.07;103350.03;6100283;19;20010;-75
2023/02/27 07:54:15;;;;;;;10.05;4.72;;;;;;;0.36;84.82;103344.28;6106747;19;20106;-74
2023/02/27 07:56:20;;;;;;;13.57;6.22;;;;;;;0.44;84.53;103337.72;6104698;19;20011;-75
2023/02/27 07:58:27;;;;;;;12.38;5.97;;;;;;;0.51;84.37;103349.22;6109485;19;20086;-75
2023/02/27 08:00:37;;;;;;;15.73;5.95;;;;;;;0.59;83.99;103346.97;6110696;19;20027;-75
2023/02/27 08:02:46;;;;;;;9.45;4.68;;;;;;;0.60;83.84;103339.25;6108497;19;20034;-75
2023/02/27 08:04:51;;;;;;;8.43;4.72;;;;;;;0.71;83.66;103341.38;6110057;19;20451;-74
2023/02/27 08:06:56;;;;;;;10.60;5.60;;;;;;;0.81;83.29;103339.22;6109814;19;20003;-75
2023/02/27 08:09:02;;;;;;;13.55;5.30;;;;;;;0.88;82.86;103343.84;6107465;19;20693;-75
2023/02/27 08:11:07;;;;;;;11.02;5.28;;;;;;;0.98;82.48;103350.28;6107075;19;20086;-74
2023/02/27 08:13:16;;;;;;;11.93;5.40;;;;;;;0.98;82.74;103351.97;6110934;19;20032;-74
2023/02/27 08:15:41;;;;;;;17.05;5.53;;;;;;;1.05;82.54;103346.19;6109539;19;20529;-74
2023/02/27 08:17:47;;;;;;;12.25;5.47;;;;;;;1.16;81.75;103349.19;6107269;19;20011;-75
2023/02/27 08:19:54;;;;;;;13.60;5.55;;;;;;;1.26;81.59;103356.50;6110916;19;20017;-75
2023/02/27 08:22:02;;;;;;;12.48;5.53;;;;;;;1.22;81.77;103355.50;6108974;19;20034;-74
2023/02/27 08:24:07;;;;;;;12.38;5.10;;;;;;;1.28;81.38;103347.97;6108975;19;20015;-74
2023/02/27 08:26:13;;;;;;;14.68;5.90;;;;;;;1.38;81.12;103361.28;6111636;19;20018;-74
2023/02/27 08:28:18;;;;;;;11.63;4.35;;;;;;;1.50;80.26;103360.03;6110860;19;20046;-74
2023/02/27 08:30:27;;;;;;;17.02;6.80;;;;;;;1.61;79.96;103355.25;6108796;19;20014;-74
2023/02/27 08:32:38;;;;;;;12.05;5.50;;;;;;;1.71;79.76;103349.59;6111018;19;20454;-75
2023/02/27 08:34:45;;;;;;;13.18;4.78;;;;;;;1.81;78.66;103362.88;6083775;19;20018;-75
2023/02/27 08:36:50;;;;;;;10.05;4.40;;;;;;;1.91;78.78;103363.25;6108661;19;20102;-75
2023/02/27 08:38:58;;;;;;;14.00;5.50;;;;;;;2.03;78.81;103368.00;6107030;19;20086;-75
2023/02/27 08:41:03;;;;;;;10.95;5.32;;;;;;;2.17;78.06;103368.50;6086577;19;20473;-74
2023/02/27 08:43:08;;;;;;;9.57;5.50;;;;;;;2.31;77.40;103376.75;6103121;19;20066;-74
2023/02/27 08:45:16;;;;;;;16.25;5.75;;;;;;;2.46;76.52;103374.69;6109109;19;20015;-76
2023/02/27 08:47:21;;;;;;;18.15;6.20;;;;;;;2.57;75.12;103380.22;6106867;19;20055;-74
2023/02/27 08:49:34;;;;;;;12.90;5.45;;;;;;;2.70;74.31;103379.81;6108486;19;20010;-74
2023/02/27 08:51:40;;;;;;;17.35;5.60;;;;;;;2.82;74.40;103376.75;6107585;19;20081;-75
2023/02/27 08:57:17;;;;;;;10.98;4.95;;;;;;;3.09;73.91;103384.53;6028041;19;20006;-71
2023/02/27 08:59:22;;;;;;;10.18;5.20;;;;;;;3.20;73.49;103382.25;6107385;19;20027;-70
2023/02/27 09:01:33;;;;;;;11.13;4.53;;;;;;;3.32;72.97;103377.44;6104196;19;20014;-71
2023/02/27 09:03:38;;;;;;;15.80;5.97;;;;;;;3.39;72.72;103381.09;6107323;19;20653;-71
2023/02/27 09:05:45;;;;;;;9.68;5.03;;;;;;;3.50;72.13;103379.69;6107803;19;20039;-71
2023/02/27 09:07:50;;;;;;;11.75;4.68;;;;;;;3.62;71.68;103384.38;6106628;19;20649;-70
2023/02/27 09:09:55;;;;;;;16.25;5.30;;;;;;;3.67;71.30;103391.47;6105181;19;20716;-71
2023/02/27 09:12:00;;;;;;;13.68;5.47;;;;;;;3.75;71.28;103376.09;6110322;19;20518;-69
2023/02/27 09:14:05;;;;;;;16.95;5.32;;;;;;;3.95;70.42;103385.34;6109260;19;20024;-69
2023/02/27 09:16:10;;;;;;;9.02;4.18;;;;;;;3.96;70.07;103389.69;6105618;19;20015;-70
2023/02/27 09:18:15;;;;;;;13.13;5.32;;;;;;;4.04;70.21;103389.91;6109834;19;20015;-70
2023/02/27 09:20:23;;;;;;;13.75;5.72;;;;;;;4.17;70.10;103393.75;6107965;19;20784;-70
2023/02/27 09:22:32;;;;;;;10.15;4.10;;;;;;;4.21;69.32;103392.97;6107175;19;20085;-70
2023/02/27 09:24:37;;;;;;;13.07;5.30;;;;;;;4.35;69.22;103394.22;6107507;19;20023;-71
2023/02/27 09:26:41;;;;;;;10.15;4.72;;;;;;;4.44;69.41;103388.38;6108573;19;20025;-69
2023/02/27 09:28:50;;;;;;;12.52;5.10;;;;;;;4.66;68.85;103388.91;6106086;19;20038;-70
2023/02/27 09:30:56;;;;;;;10.48;4.97;;;;;;;4.61;68.36;103394.03;6107822;19;20070;-70
2023/02/27 09:33:01;;;;;;;11.48;5.38;;;;;;;4.67;68.38;103396.78;6108253;19;20023;-70
2023/02/27 09:35:08;;;;;;;22.02;5.20;;;;;;;4.77;68.04;103397.91;6086480;19;20360;-70
2023/02/27 09:37:13;;;;;;;16.88;6.15;;;;;;;4.88;68.20;103395.56;6102785;19;20011;-70
2023/02/27 09:39:29;;;;;;;19.50;5.15;;;;;;;4.97;67.62;103390.53;6107084;19;20582;-70
2023/02/27 09:41:54;;;;;;;11.18;4.93;;;;;;;5.01;67.42;103397.59;6109692;19;20496;-70
2023/02/27 09:44:01;;;;;;;13.05;5.30;;;;;;;5.12;67.64;103388.31;6109666;19;20006;-71
2023/02/27 09:46:12;;;;;;;13.68;4.88;;;;;;;5.19;67.02;103386.72;6104736;19;20018;-71
2023/02/27 09:48:28;;;;;;;20.08;5.70;;;;;;;5.17;66.27;103391.03;6091305;19;20444;-70
2023/02/27 09:50:41;;;;;;;14.90;4.15;;;;;;;5.24;66.58;103391.19;6109040;19;20027;-71
2023/02/27 09:52:46;;;;;;;15.45;5.13;;;;;;;5.32;65.26;103398.28;6103999;19;20023;-70
2023/02/27 09:54:54;;;;;;;10.35;4.25;;;;;;;5.47;65.23;103398.63;6107384;19;20018;-70
2023/02/27 09:57:15;;;;;;;11.95;3.55;;;;;;;5.56;64.15;103393.63;6107536;19;20010;-71
2023/02/27 09:59:33;;;;;;;10.25;4.03;;;;;;;5.52;64.28;103390.91;6105718;19;20094;-70
2023/02/27 10:01:45;;;;;;;9.38;3.47;;;;;;;5.48;63.84;103396.06;6109139;19;20014;-70
2023/02/27 10:04:17;;;;;;;13.98;3.65;;;;;;;5.58;64.15;103391.94;6109934;19;20010;-70
2023/02/27 10:06:27;;;;;;;9.30;4.38;;;;;;;5.76;63.53;103395.75;6112127;19;20015;-70